Time;durP1;ratioP1;P1;durP2;ratioP2;P2;SDS_P1;SDS_P2;PMS_P1;PMS_P2;Temp;Humidity;BMP_temperature;BMP_pressure;BME280_temperature;BME280_humidity;BME280_pressure;Samples;Min_cycle;Max_cycle;Signal;HPM_P1;HPM_P2
2022/09/23 00:02:06;;;;;;;669.78;512.90;;;14.50;99.90;;;;;;5087225;28;20288;-76
2022/09/23 00:04:34;;;;;;;680.47;512.45;;;14.50;99.90;;;;;;5083050;28;20201;-76
2022/09/23 00:07:00;;;;;;;662.15;513.47;;;14.50;99.90;;;;;;5093874;28;20193;-78
2022/09/23 00:09:27;;;;;;;661.00;522.35;;;14.50;99.90;;;;;;5092308;28;20198;-77
2022/09/23 00:11:54;;;;;;;657.30;511.55;;;14.50;99.90;;;;;;5085838;28;20197;-76
2022/09/23 00:14:21;;;;;;;648.05;509.70;;;14.40;99.90;;;;;;5089644;28;20194;-77
2022/09/23 00:16:48;;;;;;;648.95;511.90;;;14.40;99.90;;;;;;5084844;28;20213;-76
2022/09/23 00:19:14;;;;;;;647.53;493.75;;;14.40;99.90;;;;;;5087381;28;20197;-77
2022/09/23 00:21:42;;;;;;;654.45;502.70;;;14.40;99.90;;;;;;5091191;28;20188;-77
2022/09/23 00:24:09;;;;;;;655.80;506.10;;;14.40;99.90;;;;;;5088366;28;20190;-77
2022/09/23 00:26:36;;;;;;;648.70;490.27;;;14.40;99.90;;;;;;5092557;28;20193;-76
2022/09/23 00:29:03;;;;;;;643.88;504.20;;;14.40;99.90;;;;;;5087718;28;20194;-77
2022/09/23 00:31:30;;;;;;;632.75;506.98;;;14.40;99.90;;;;;;5085493;28;20599;-76
2022/09/23 00:33:59;;;;;;;640.60;511.55;;;14.40;99.90;;;;;;5087289;28;20198;-77
2022/09/23 00:36:27;;;;;;;624.55;504.27;;;14.30;99.90;;;;;;5089922;28;20222;-77
2022/09/23 00:38:55;;;;;;;618.47;505.13;;;14.30;99.90;;;;;;5095781;28;20193;-76
2022/09/23 00:41:22;;;;;;;617.13;502.83;;;14.30;99.90;;;;;;5086253;28;20599;-77
2022/09/23 00:43:51;;;;;;;611.05;497.17;;;14.30;99.90;;;;;;5090301;28;20194;-77
2022/09/23 00:46:22;;;;;;;615.47;503.80;;;14.30;99.90;;;;;;5083702;28;20198;-76
2022/09/23 00:48:55;;;;;;;615.45;502.63;;;14.30;99.90;;;;;;5089258;28;20201;-76
2022/09/23 00:51:26;;;;;;;618.60;501.48;;;14.30;99.90;;;;;;5087130;28;20603;-77
2022/09/23 00:53:53;;;;;;;623.58;494.65;;;14.30;99.90;;;;;;5087417;28;20664;-76
2022/09/23 00:56:23;;;;;;;629.35;487.13;;;14.30;99.90;;;;;;5086683;28;20283;-77
2022/09/23 00:58:51;;;;;;;632.35;486.85;;;14.20;99.90;;;;;;5086531;28;20194;-77
2022/09/23 01:01:19;;;;;;;638.97;505.55;;;14.20;99.90;;;;;;5081020;28;20281;-76
2022/09/23 01:03:46;;;;;;;632.08;491.70;;;14.20;99.90;;;;;;5090939;28;20648;-78
2022/09/23 01:06:13;;;;;;;636.88;496.15;;;14.20;99.90;;;;;;5090191;28;20204;-76
2022/09/23 01:08:42;;;;;;;627.05;479.10;;;14.20;99.90;;;;;;5090507;28;20235;-76
2022/09/23 01:11:23;;;;;;;634.00;499.77;;;14.20;99.90;;;;;;5086790;28;20193;-76
2022/09/23 01:13:59;;;;;;;626.55;480.63;;;14.20;99.90;;;;;;5085355;28;20285;-78
2022/09/23 01:16:33;;;;;;;627.75;483.83;;;14.20;99.90;;;;;;5082202;28;20233;-77
2022/09/23 01:19:10;;;;;;;630.63;499.95;;;14.20;99.90;;;;;;5089709;28;20205;-77
2022/09/23 01:21:46;;;;;;;626.85;492.63;;;14.20;99.90;;;;;;5088993;28;20197;-76
2022/09/23 01:24:32;;;;;;;635.17;507.80;;;14.20;99.90;;;;;;5085949;28;20225;-77
2022/09/23 01:27:10;;;;;;;628.13;492.52;;;14.20;99.90;;;;;;5090881;28;20197;-76
2022/09/23 01:30:09;;;;;;;625.30;492.45;;;14.10;99.90;;;;;;5089122;28;20284;-76
2022/09/23 01:32:54;;;;;;;622.97;479.45;;;14.10;99.90;;;;;;5088417;28;20197;-77
2022/09/23 01:35:29;;;;;;;625.58;472.80;;;14.10;99.90;;;;;;5087968;28;20220;-76
2022/09/23 01:38:04;;;;;;;635.22;480.55;;;14.10;99.90;;;;;;5089935;28;20249;-77
2022/09/23 01:40:39;;;;;;;635.03;471.35;;;14.10;99.90;;;;;;5087689;28;20606;-76
2022/09/23 01:43:10;;;;;;;630.97;478.58;;;14.10;99.90;;;;;;5086670;28;20228;-76
2022/09/23 01:45:42;;;;;;;630.53;474.67;;;14.10;99.90;;;;;;5088589;28;20205;-77
2022/09/23 01:48:17;;;;;;;641.50;493.05;;;14.10;99.90;;;;;;5087959;28;20723;-79
2022/09/23 01:50:57;;;;;;;640.92;491.23;;;14.10;99.90;;;;;;5083930;28;20578;-76
2022/09/23 01:53:31;;;;;;;640.45;482.48;;;14.10;99.90;;;;;;5089133;28;20197;-77
2022/09/23 01:56:02;;;;;;;639.15;498.55;;;14.10;99.90;;;;;;5084122;28;20270;-77
2022/09/23 01:58:36;;;;;;;632.75;488.15;;;14.10;99.90;;;;;;5087099;28;20193;-77
2022/09/23 02:01:06;;;;;;;624.83;486.45;;;14.10;99.90;;;;;;5084094;28;20228;-77
2022/09/23 02:03:40;;;;;;;631.15;483.20;;;14.10;99.90;;;;;;5089903;28;20190;-77
2022/09/23 02:06:12;;;;;;;617.88;480.92;;;14.10;99.90;;;;;;5086511;28;20648;-77
2022/09/23 02:08:43;;;;;;;638.83;485.13;;;14.00;99.90;;;;;;5086549;28;20209;-76
2022/09/23 02:11:14;;;;;;;642.03;483.83;;;14.00;99.90;;;;;;5086938;28;20194;-77
2022/09/23 02:13:48;;;;;;;625.25;487.58;;;14.00;99.90;;;;;;5082420;28;20190;-76
2022/09/23 02:16:28;;;;;;;623.78;478.58;;;14.00;99.90;;;;;;5083387;28;20229;-76
2022/09/23 02:19:01;;;;;;;629.50;481.30;;;14.00;99.90;;;;;;5088874;28;20194;-76
2022/09/23 02:21:33;;;;;;;638.25;484.80;;;14.00;99.90;;;;;;5093499;28;20201;-76
2022/09/23 02:24:08;;;;;;;629.67;477.17;;;14.00;99.90;;;;;;5089442;28;20217;-76
2022/09/23 02:26:40;;;;;;;626.53;479.38;;;14.00;99.90;;;;;;5080132;28;20193;-76
2022/09/23 02:29:15;;;;;;;620.22;487.73;;;14.00;99.90;;;;;;5085945;28;20204;-76
2022/09/23 02:31:46;;;;;;;623.28;479.45;;;13.90;99.90;;;;;;5082320;28;20280;-76
2022/09/23 02:34:21;;;;;;;618.28;467.73;;;13.90;99.90;;;;;;5086761;28;20252;-76
2022/09/23 02:36:59;;;;;;;616.75;467.48;;;13.90;99.90;;;;;;5082788;28;20216;-76
2022/09/23 02:39:35;;;;;;;625.58;474.23;;;13.90;99.90;;;;;;5088848;28;20614;-76
2022/09/23 02:42:08;;;;;;;619.88;475.00;;;13.90;99.90;;;;;;5085753;28;20194;-75
2022/09/23 02:44:36;;;;;;;623.72;468.23;;;13.90;99.90;;;;;;5092163;28;20201;-76
2022/09/23 02:47:02;;;;;;;621.03;464.67;;;13.90;99.90;;;;;;5085419;28;20557;-76
2022/09/23 02:49:32;;;;;;;623.45;471.50;;;13.90;99.90;;;;;;5084985;28;20205;-75
2022/09/23 02:52:03;;;;;;;628.33;480.40;;;13.80;99.90;;;;;;5088159;28;20194;-76
2022/09/23 02:54:32;;;;;;;630.10;463.00;;;13.80;99.90;;;;;;5085935;28;20205;-77
2022/09/23 02:57:01;;;;;;;634.35;473.38;;;13.80;99.90;;;;;;5086185;28;20218;-76
2022/09/23 02:59:28;;;;;;;643.75;480.48;;;13.80;99.90;;;;;;5084200;28;20224;-76
2022/09/23 03:02:12;;;;;;;639.10;478.58;;;13.80;99.90;;;;;;5078430;28;20198;-76
2022/09/23 03:04:47;;;;;;;644.90;474.50;;;13.80;99.90;;;;;;5085773;28;20284;-75
2022/09/23 03:07:18;;;;;;;637.08;468.60;;;13.80;99.90;;;;;;5088027;28;20288;-76
2022/09/23 03:09:54;;;;;;;643.05;465.77;;;13.80;99.90;;;;;;5085850;28;20205;-76
2022/09/23 03:12:34;;;;;;;649.13;479.50;;;13.80;99.90;;;;;;5089799;28;20250;-76
2022/09/23 03:15:17;;;;;;;655.05;471.42;;;13.80;99.90;;;;;;5089132;28;20193;-76
2022/09/23 03:17:51;;;;;;;640.53;457.05;;;13.80;99.90;;;;;;5083326;28;20221;-75
2022/09/23 03:20:26;;;;;;;648.28;463.65;;;13.70;99.90;;;;;;5089168;28;20553;-76
2022/09/23 03:22:57;;;;;;;649.78;460.63;;;13.70;99.90;;;;;;5087982;28;20193;-76
2022/09/23 03:25:25;;;;;;;669.92;475.73;;;13.70;99.90;;;;;;5088014;28;20194;-76
2022/09/23 03:27:56;;;;;;;673.97;473.98;;;13.70;99.90;;;;;;5087098;28;20284;-78
2022/09/23 03:30:25;;;;;;;668.58;487.23;;;13.70;99.90;;;;;;5088323;28;21138;-76
2022/09/23 03:32:53;;;;;;;647.55;477.73;;;13.70;99.90;;;;;;5083630;28;20599;-75
2022/09/23 03:35:23;;;;;;;650.90;476.55;;;13.70;99.90;;;;;;5086133;28;20194;-77
2022/09/23 03:37:56;;;;;;;638.42;473.15;;;13.70;99.90;;;;;;5085072;28;20194;-77
2022/09/23 03:40:27;;;;;;;628.30;479.45;;;13.70;99.90;;;;;;5077473;28;20209;-74
2022/09/23 03:42:56;;;;;;;622.55;471.77;;;13.70;99.90;;;;;;5088411;28;20193;-75
2022/09/23 03:45:27;;;;;;;628.75;474.00;;;13.70;99.90;;;;;;5087645;28;20194;-76
2022/09/23 03:47:53;;;;;;;638.60;478.92;;;13.70;99.90;;;;;;5082947;28;20216;-77
2022/09/23 03:50:21;;;;;;;633.40;475.15;;;13.70;99.90;;;;;;5085394;28;20252;-76
2022/09/23 03:52:49;;;;;;;641.60;488.58;;;13.60;99.90;;;;;;5092970;28;20202;-78
2022/09/23 03:55:16;;;;;;;644.33;466.65;;;13.60;99.90;;;;;;5084440;28;20202;-76
2022/09/23 03:57:44;;;;;;;622.95;468.92;;;13.60;99.90;;;;;;5085439;28;20247;-77
2022/09/23 04:00:13;;;;;;;633.92;476.40;;;13.60;99.90;;;;;;5091591;28;20276;-77
2022/09/23 04:02:40;;;;;;;645.00;479.15;;;13.60;99.90;;;;;;5082845;28;20225;-76
2022/09/23 04:05:08;;;;;;;648.33;483.75;;;13.60;99.90;;;;;;5085712;28;20194;-76
2022/09/23 04:07:36;;;;;;;643.17;453.88;;;13.60;99.90;;;;;;5090878;28;20197;-75
2022/09/23 04:10:03;;;;;;;638.90;462.58;;;13.60;99.90;;;;;;5083666;28;20202;-75
2022/09/23 04:12:30;;;;;;;618.17;462.65;;;13.60;99.90;;;;;;5087810;28;20777;-77
2022/09/23 04:14:57;;;;;;;603.72;446.98;;;13.50;99.90;;;;;;5094350;28;20190;-76
2022/09/23 04:17:23;;;;;;;622.03;489.10;;;13.50;99.90;;;;;;5090737;28;20221;-76
2022/09/23 04:19:50;;;;;;;651.97;470.00;;;13.50;99.90;;;;;;5091678;28;20318;-77
2022/09/23 04:22:17;;;;;;;637.20;450.23;;;13.50;99.90;;;;;;5089510;28;20841;-77
2022/09/23 04:24:45;;;;;;;634.35;463.48;;;13.50;99.90;;;;;;5090570;28;20209;-76
2022/09/23 04:27:11;;;;;;;654.58;460.33;;;13.50;99.90;;;;;;5086132;28;20255;-77
2022/09/23 04:29:38;;;;;;;656.70;460.63;;;13.50;99.90;;;;;;5089156;28;20330;-77
2022/09/23 04:32:05;;;;;;;666.58;463.08;;;13.50;99.90;;;;;;5084736;28;20220;-77
2022/09/23 04:34:31;;;;;;;646.10;460.98;;;13.50;99.90;;;;;;5090067;28;20255;-76
2022/09/23 04:36:58;;;;;;;658.50;469.00;;;13.50;99.90;;;;;;5090533;28;20214;-77
2022/09/23 04:39:25;;;;;;;634.00;458.52;;;13.50;99.90;;;;;;5088972;28;20193;-77
2022/09/23 04:41:53;;;;;;;637.08;456.48;;;13.50;99.90;;;;;;5087574;28;20209;-77
2022/09/23 04:44:20;;;;;;;642.80;457.27;;;13.40;99.90;;;;;;5089517;28;20202;-76
2022/09/23 04:46:48;;;;;;;677.08;453.40;;;13.40;99.90;;;;;;5082184;28;20206;-77
2022/09/23 04:49:15;;;;;;;658.95;459.42;;;13.40;99.90;;;;;;5088786;28;20230;-76
2022/09/23 04:51:42;;;;;;;657.20;458.92;;;13.40;99.90;;;;;;5093080;28;20208;-76
2022/09/23 04:54:09;;;;;;;680.53;455.55;;;13.40;99.90;;;;;;5088965;28;20251;-76
2022/09/23 04:56:36;;;;;;;663.25;442.88;;;13.40;99.90;;;;;;5089560;28;20738;-75
2022/09/23 04:59:04;;;;;;;650.92;457.42;;;13.40;99.90;;;;;;5087782;28;20197;-76
2022/09/23 05:01:33;;;;;;;647.80;454.52;;;13.40;99.90;;;;;;5086602;28;20190;-76
2022/09/23 05:04:02;;;;;;;650.28;455.58;;;13.40;99.90;;;;;;5090058;28;20277;-76
2022/09/23 05:06:30;;;;;;;647.33;461.85;;;13.30;99.90;;;;;;5093472;28;20192;-76
2022/09/23 05:08:58;;;;;;;647.60;452.75;;;13.30;99.90;;;;;;5090911;28;20198;-75
2022/09/23 05:11:26;;;;;;;650.00;455.52;;;13.30;99.90;;;;;;5081104;28;20217;-76
2022/09/23 05:13:54;;;;;;;650.72;448.30;;;13.30;99.90;;;;;;5088415;28;20194;-76
2022/09/23 05:16:23;;;;;;;655.28;450.63;;;13.30;99.90;;;;;;5089160;28;20221;-75
2022/09/23 05:18:51;;;;;;;658.97;447.80;;;13.30;99.90;;;;;;5090725;28;20225;-77
2022/09/23 05:21:19;;;;;;;680.30;452.10;;;13.30;99.90;;;;;;5090601;28;20386;-76
2022/09/23 05:23:48;;;;;;;691.88;448.20;;;13.30;99.90;;;;;;5086556;28;20788;-76
2022/09/23 05:26:16;;;;;;;690.08;432.30;;;13.30;99.90;;;;;;5086624;28;20201;-77
2022/09/23 05:28:42;;;;;;;677.22;436.33;;;13.30;99.90;;;;;;5091540;28;20280;-77
2022/09/23 05:31:13;;;;;;;669.45;429.20;;;13.20;99.90;;;;;;5084216;28;20213;-77
2022/09/23 05:33:43;;;;;;;667.50;440.83;;;13.20;99.90;;;;;;5090941;28;20193;-76
2022/09/23 05:36:10;;;;;;;663.35;449.75;;;13.20;99.90;;;;;;5086582;28;20226;-76
2022/09/23 05:38:37;;;;;;;650.22;436.08;;;13.20;99.90;;;;;;5085592;28;20197;-78
2022/09/23 05:41:06;;;;;;;644.03;440.42;;;13.20;99.90;;;;;;5089954;28;20462;-76
2022/09/23 05:43:34;;;;;;;649.95;444.70;;;13.20;99.90;;;;;;5089665;28;20285;-76
2022/09/23 05:46:05;;;;;;;647.60;454.30;;;13.20;99.90;;;;;;5086735;28;20266;-77
2022/09/23 05:48:33;;;;;;;644.25;443.70;;;13.20;99.90;;;;;;5091067;28;20610;-77
2022/09/23 05:51:02;;;;;;;639.22;447.95;;;13.20;99.90;;;;;;5093885;28;20220;-75
2022/09/23 05:53:30;;;;;;;634.42;452.17;;;13.20;99.90;;;;;;5089983;28;21743;-77
2022/09/23 05:55:57;;;;;;;634.80;446.50;;;13.20;99.90;;;;;;5083174;28;20194;-77
2022/09/23 05:58:24;;;;;;;639.47;454.90;;;13.20;99.90;;;;;;5085883;28;20538;-76
2022/09/23 06:00:52;;;;;;;641.78;445.48;;;13.20;99.90;;;;;;5084198;28;20198;-77
2022/09/23 06:03:20;;;;;;;640.08;444.88;;;13.20;99.90;;;;;;5088288;28;20204;-78
2022/09/23 06:05:47;;;;;;;630.53;430.13;;;13.30;99.90;;;;;;5090324;28;20209;-76
2022/09/23 06:08:15;;;;;;;633.20;447.27;;;13.30;99.90;;;;;;5089044;28;20197;-76
2022/09/23 06:10:43;;;;;;;626.40;447.17;;;13.30;99.90;;;;;;5082254;28;20775;-76
2022/09/23 06:13:10;;;;;;;633.78;463.92;;;13.40;99.90;;;;;;5087618;28;20210;-77
2022/09/23 06:15:38;;;;;;;628.10;447.38;;;13.50;99.90;;;;;;5087375;28;20201;-77
2022/09/23 06:18:05;;;;;;;637.03;465.00;;;13.60;99.90;;;;;;5086835;28;20229;-74
2022/09/23 06:20:33;;;;;;;636.05;474.65;;;13.80;99.90;;;;;;5088887;28;20247;-74
2022/09/23 06:23:04;;;;;;;629.28;465.48;;;13.90;99.90;;;;;;5089469;28;20284;-77
2022/09/23 06:25:32;;;;;;;632.50;472.88;;;14.00;99.90;;;;;;5086936;28;20300;-77
2022/09/23 06:27:59;;;;;;;639.88;479.50;;;14.10;99.90;;;;;;5085375;28;20197;-77
2022/09/23 06:30:26;;;;;;;632.80;488.15;;;14.20;99.90;;;;;;5089674;28;20575;-77
2022/09/23 06:32:54;;;;;;;633.28;496.23;;;14.20;99.90;;;;;;5086718;28;20201;-73
2022/09/23 06:35:23;;;;;;;636.10;494.30;;;14.20;99.90;;;;;;5086078;28;20297;-75
2022/09/23 06:37:49;;;;;;;633.92;471.25;;;14.20;99.90;;;;;;5085272;28;20222;-76
2022/09/23 06:40:16;;;;;;;644.90;485.35;;;14.20;99.90;;;;;;5086305;28;20220;-75
2022/09/23 06:42:45;;;;;;;638.83;485.00;;;14.20;99.90;;;;;;5085825;28;20186;-76
2022/09/23 06:45:14;;;;;;;646.30;492.73;;;14.20;99.90;;;;;;5087782;28;20209;-76
2022/09/23 06:47:41;;;;;;;643.10;484.10;;;14.20;99.90;;;;;;5086108;28;20193;-76
2022/09/23 06:50:09;;;;;;;642.28;481.52;;;14.20;99.90;;;;;;5085180;28;20209;-76
2022/09/23 06:52:36;;;;;;;646.95;490.50;;;14.10;99.90;;;;;;5090911;28;20247;-76
2022/09/23 06:55:02;;;;;;;633.85;480.25;;;14.20;99.90;;;;;;5090596;28;20195;-75
2022/09/23 06:57:29;;;;;;;635.80;485.98;;;14.20;99.90;;;;;;5085652;28;20221;-76
2022/09/23 06:59:58;;;;;;;634.72;482.25;;;14.20;99.90;;;;;;5084035;28;20189;-75
2022/09/23 07:02:25;;;;;;;636.03;485.33;;;14.30;99.90;;;;;;5084551;28;20284;-80
2022/09/23 07:04:51;;;;;;;640.28;496.02;;;14.30;99.90;;;;;;5094310;28;20216;-77
2022/09/23 07:07:18;;;;;;;645.63;506.30;;;14.40;99.90;;;;;;5083779;28;20213;-78
2022/09/23 07:09:45;;;;;;;650.53;514.15;;;14.50;99.90;;;;;;5089910;28;20235;-76
2022/09/23 07:12:12;;;;;;;651.75;512.20;;;14.60;99.90;;;;;;5085970;28;20454;-80
2022/09/23 07:14:39;;;;;;;647.08;510.75;;;14.70;99.90;;;;;;5086432;28;20652;-80
2022/09/23 07:17:07;;;;;;;656.22;516.60;;;14.90;99.90;;;;;;5086455;28;20452;-80
2022/09/23 07:19:35;;;;;;;660.47;526.22;;;15.00;99.90;;;;;;5088474;28;20200;-80
2022/09/23 07:22:01;;;;;;;656.97;542.53;;;15.10;99.90;;;;;;5088189;28;20285;-80
2022/09/23 07:24:28;;;;;;;663.67;553.67;;;15.20;99.90;;;;;;5082714;28;20207;-80
2022/09/23 07:26:55;;;;;;;666.33;551.22;;;15.30;99.90;;;;;;5086362;28;20198;-80
2022/09/23 07:29:22;;;;;;;674.42;561.20;;;15.40;99.90;;;;;;5087201;28;20216;-81
2022/09/23 07:31:48;;;;;;;662.40;546.67;;;15.50;99.90;;;;;;5085273;28;20194;-81
2022/09/23 07:34:16;;;;;;;659.63;554.22;;;15.60;99.90;;;;;;5087722;28;20191;-81
2022/09/23 07:36:43;;;;;;;662.35;579.85;;;15.60;99.90;;;;;;5086397;28;20255;-80
2022/09/23 07:39:12;;;;;;;667.22;579.40;;;15.70;99.90;;;;;;5085627;28;20236;-80
2022/09/23 07:41:40;;;;;;;656.00;566.55;;;15.70;99.90;;;;;;5077600;28;20200;-83
2022/09/23 07:44:07;;;;;;;657.83;585.85;;;15.80;99.90;;;;;;5087097;28;20196;-83
2022/09/23 07:46:35;;;;;;;648.17;577.85;;;15.80;99.90;;;;;;5086185;28;20200;-83
2022/09/23 07:49:03;;;;;;;640.72;571.00;;;15.80;99.90;;;;;;5091656;28;20207;-83
2022/09/23 07:51:34;;;;;;;663.70;593.10;;;15.80;99.90;;;;;;5088097;28;20196;-82
2022/09/23 07:54:00;;;;;;;650.30;580.17;;;15.80;99.90;;;;;;5090786;28;20203;-83
2022/09/23 07:56:29;;;;;;;658.97;588.70;;;15.70;99.90;;;;;;5089776;27;20645;-81
2022/09/23 07:59:02;;;;;;;649.03;579.05;;;15.70;99.90;;;;;;5095854;28;20223;-83
2022/09/23 08:01:31;;;;;;;655.10;585.53;;;15.70;99.90;;;;;;5084847;28;20197;-82
2022/09/23 08:04:00;;;;;;;648.72;579.58;;;15.70;99.90;;;;;;5088021;28;20203;-75
2022/09/23 08:06:26;;;;;;;638.22;569.38;;;15.60;99.90;;;;;;5086627;28;20189;-77
2022/09/23 08:08:57;;;;;;;655.88;585.67;;;15.60;99.90;;;;;;5085397;28;20249;-78
2022/09/23 08:11:25;;;;;;;636.85;567.58;;;15.60;99.90;;;;;;5085829;28;20196;-81
2022/09/23 08:13:53;;;;;;;629.30;560.17;;;15.60;99.90;;;;;;5087127;28;20658;-80
2022/09/23 08:16:19;;;;;;;641.35;572.20;;;15.60;99.90;;;;;;5081263;28;20248;-83
2022/09/23 08:18:46;;;;;;;640.97;572.10;;;15.60;99.90;;;;;;5086755;28;20263;-75
2022/09/23 08:21:18;;;;;;;644.25;575.42;;;15.60;99.90;;;;;;5087516;28;20200;-76
2022/09/23 08:25:01;;;;;;;659.40;587.78;;;15.70;99.90;;;;;;5076956;27;20638;-76
2022/09/23 08:27:28;;;;;;;684.90;612.77;;;16.00;99.90;;;;;;5064430;28;20458;-77
2022/09/23 08:29:54;;;;;;;670.80;598.83;;;16.00;99.90;;;;;;5068494;28;20471;-76
2022/09/23 08:32:21;;;;;;;665.65;594.65;;;15.90;99.90;;;;;;5056851;28;20371;-77
2022/09/23 08:34:48;;;;;;;669.97;599.88;;;15.90;99.90;;;;;;5059177;28;20611;-77
2022/09/23 08:37:14;;;;;;;664.78;595.05;;;15.90;99.90;;;;;;5057287;28;20205;-77
2022/09/23 08:39:41;;;;;;;654.53;585.30;;;15.90;99.90;;;;;;5056711;28;20256;-76
2022/09/23 08:42:19;;;;;;;660.58;591.20;;;16.00;99.90;;;;;;5062584;28;20189;-76
2022/09/23 08:44:49;;;;;;;660.85;592.03;;;16.00;99.90;;;;;;5057915;28;20219;-76
2022/09/23 08:47:21;;;;;;;659.38;591.33;;;16.00;99.90;;;;;;5062642;28;20194;-76
2022/09/23 08:49:57;;;;;;;664.03;595.97;;;15.90;99.90;;;;;;5060452;28;20652;-76
2022/09/23 08:52:31;;;;;;;658.85;591.25;;;15.90;99.90;;;;;;5063256;28;20197;-77
2022/09/23 08:54:58;;;;;;;665.83;597.63;;;15.80;99.90;;;;;;5063486;28;20220;-77
2022/09/23 08:57:37;;;;;;;653.60;586.22;;;15.80;99.90;;;;;;5056771;28;20196;-77
2022/09/23 09:00:05;;;;;;;652.00;585.00;;;15.80;99.90;;;;;;5060157;28;20198;-77
2022/09/23 09:02:35;;;;;;;663.35;596.28;;;15.80;99.90;;;;;;5060073;28;20281;-77
2022/09/23 09:05:05;;;;;;;654.10;587.60;;;15.80;99.90;;;;;;5059811;28;20252;-77
2022/09/23 09:07:34;;;;;;;640.38;573.88;;;15.70;99.90;;;;;;5064078;28;20542;-77
2022/09/23 09:10:06;;;;;;;644.50;578.33;;;15.70;99.90;;;;;;5063564;28;20250;-77
2022/09/23 09:12:40;;;;;;;645.47;578.97;;;15.70;99.90;;;;;;5055511;28;20247;-77
2022/09/23 09:15:13;;;;;;;659.75;592.40;;;15.60;99.90;;;;;;5062341;28;20193;-76
2022/09/23 09:17:47;;;;;;;643.72;577.65;;;15.60;99.90;;;;;;5056166;28;20901;-77
2022/09/23 09:20:23;;;;;;;642.40;575.90;;;15.60;99.90;;;;;;5061166;28;20640;-76
2022/09/23 09:22:54;;;;;;;642.35;575.00;;;15.60;99.90;;;;;;5060891;28;20347;-77
2022/09/23 09:25:41;;;;;;;624.70;557.92;;;15.50;99.90;;;;;;5062202;28;20199;-82
2022/09/23 09:28:17;;;;;;;623.38;556.88;;;15.50;99.90;;;;;;5060510;28;20220;-72
2022/09/23 09:30:45;;;;;;;634.40;566.70;;;15.50;99.90;;;;;;5060311;28;20565;-76
2022/09/23 09:33:16;;;;;;;627.97;560.17;;;15.50;99.90;;;;;;5071144;28;20205;-76
2022/09/23 09:35:58;;;;;;;637.67;569.88;;;15.50;99.90;;;;;;5056020;28;20186;-76
2022/09/23 09:38:26;;;;;;;659.47;590.17;;;15.60;99.90;;;;;;5050272;28;20225;-77
2022/09/23 09:41:00;;;;;;;656.85;587.55;;;15.90;99.90;;;;;;5045271;28;20206;-77
2022/09/23 09:43:28;;;;;;;656.53;587.75;;;15.90;99.90;;;;;;5052345;28;20221;-77
2022/09/23 09:46:07;;;;;;;660.35;591.55;;;15.90;99.90;;;;;;5049513;28;20196;-77
2022/09/23 09:48:38;;;;;;;657.58;588.60;;;15.90;99.90;;;;;;5054396;28;20626;-77
2022/09/23 09:51:19;;;;;;;660.45;591.28;;;15.80;99.90;;;;;;5049859;28;21441;-77
2022/09/23 09:53:46;;;;;;;655.90;586.58;;;15.80;99.90;;;;;;5050677;28;20263;-77
2022/09/23 09:56:15;;;;;;;659.13;589.72;;;15.80;99.90;;;;;;5044297;28;20205;-77
2022/09/23 09:58:47;;;;;;;659.38;589.83;;;15.80;99.90;;;;;;5051043;28;20648;-78
2022/09/23 10:01:22;;;;;;;653.75;585.10;;;15.80;99.90;;;;;;5044691;28;20202;-77
2022/09/23 10:03:51;;;;;;;642.90;574.28;;;15.80;99.90;;;;;;5051528;28;20510;-76
2022/09/23 10:06:21;;;;;;;648.65;581.03;;;15.80;99.90;;;;;;5049901;28;20617;-76
2022/09/23 10:09:03;;;;;;;681.80;612.95;;;15.80;99.90;;;;;;5047516;28;20202;-77
2022/09/23 10:11:30;;;;;;;641.40;574.13;;;15.80;99.90;;;;;;5051213;28;20201;-76
2022/09/23 10:14:05;;;;;;;643.65;576.15;;;15.80;99.90;;;;;;5049014;28;20202;-76
2022/09/23 10:16:34;;;;;;;636.53;569.65;;;15.80;99.90;;;;;;5043506;28;20276;-76
2022/09/23 10:19:02;;;;;;;643.60;576.75;;;15.90;99.90;;;;;;5050925;28;20206;-76
2022/09/23 10:21:34;;;;;;;649.03;581.47;;;15.90;99.90;;;;;;5051982;28;20194;-76
2022/09/23 10:24:03;;;;;;;635.58;568.80;;;15.90;99.90;;;;;;5050943;28;20257;-76
2022/09/23 10:26:32;;;;;;;655.17;587.53;;;15.90;99.90;;;;;;5048665;28;20260;-76
2022/09/23 10:29:03;;;;;;;638.92;572.45;;;15.90;99.90;;;;;;5051191;28;20368;-76
2022/09/23 10:31:32;;;;;;;657.15;590.35;;;15.90;99.90;;;;;;5042904;28;20652;-77
2022/09/23 10:34:00;;;;;;;645.03;578.38;;;15.90;99.90;;;;;;5052833;28;20195;-76
2022/09/23 10:36:28;;;;;;;665.72;597.53;;;15.90;99.90;;;;;;5050774;28;20194;-76
2022/09/23 10:46:36;;;;;;;649.38;581.95;;;15.90;99.90;;;;;;5051554;28;20249;-76
2022/09/23 10:47:47;;;;;;;648.33;578.88;;;16.00;99.90;;;;;;5045615;28;20801;-76
2022/09/23 10:50:26;;;;;;;643.33;573.40;;;16.00;99.90;;;;;;5046828;28;20197;-76
2022/09/23 10:53:03;;;;;;;655.90;586.20;;;16.00;99.90;;;;;;5048598;28;20668;-76
2022/09/23 10:56:10;;;;;;;639.45;569.92;;;16.00;99.90;;;;;;5049531;28;20290;-76
2022/09/23 10:59:06;;;;;;;659.03;589.17;;;16.00;99.90;;;;;;5043661;28;20195;-76
2022/09/23 11:01:43;;;;;;;651.17;582.05;;;16.10;99.90;;;;;;5047932;28;20199;-76
2022/09/23 11:04:25;;;;;;;655.88;586.90;;;16.10;99.90;;;;;;5048821;28;20627;-77
2022/09/23 11:07:13;;;;;;;647.35;578.75;;;16.10;99.90;;;;;;5047255;28;20284;-76
2022/09/23 11:09:58;;;;;;;668.22;598.80;;;16.10;99.90;;;;;;5043459;28;20209;-76
2022/09/23 11:12:37;;;;;;;666.97;598.33;;;16.10;99.90;;;;;;5049685;28;20645;-76
2022/09/23 11:15:19;;;;;;;664.45;595.38;;;16.10;99.90;;;;;;5051385;28;20203;-76
2022/09/23 11:18:06;;;;;;;659.80;590.72;;;16.10;99.90;;;;;;5049735;28;20232;-77
2022/09/23 11:20:46;;;;;;;647.15;579.08;;;16.10;99.90;;;;;;5050338;28;20195;-77
2022/09/23 11:23:43;;;;;;;664.28;595.47;;;16.20;99.90;;;;;;5042708;28;20207;-76
2022/09/23 11:26:23;;;;;;;663.65;594.72;;;16.20;99.90;;;;;;5048443;28;20195;-76
2022/09/23 11:29:14;;;;;;;670.35;601.05;;;16.20;99.90;;;;;;5048290;28;20321;-76
2022/09/23 11:31:51;;;;;;;672.92;603.22;;;16.20;99.90;;;;;;5046715;28;20601;-76
2022/09/23 11:34:42;;;;;;;675.25;605.45;;;16.20;99.90;;;;;;5049063;28;20209;-76
2022/09/23 11:37:13;;;;;;;689.42;619.95;;;16.30;99.90;;;;;;5041623;28;20196;-76
2022/09/23 11:39:46;;;;;;;694.80;625.10;;;16.30;99.90;;;;;;5044759;28;20195;-76
2022/09/23 11:42:19;;;;;;;676.97;607.22;;;16.30;99.90;;;;;;5054195;28;20615;-77
2022/09/23 11:44:51;;;;;;;692.58;622.35;;;16.40;99.90;;;;;;5052553;28;20219;-76
2022/09/23 11:47:22;;;;;;;686.92;616.88;;;16.40;99.90;;;;;;5039725;28;20192;-76
2022/09/23 11:49:55;;;;;;;689.45;619.78;;;16.40;99.90;;;;;;5051010;28;20269;-76
2022/09/23 11:52:27;;;;;;;696.13;626.15;;;16.40;99.90;;;;;;5049482;28;20333;-76
2022/09/23 11:54:57;;;;;;;688.40;618.90;;;16.40;99.90;;;;;;5048763;28;20209;-76
2022/09/23 11:57:29;;;;;;;685.60;616.92;;;16.50;99.90;;;;;;5046467;28;20582;-76
2022/09/23 12:00:00;;;;;;;685.53;617.10;;;16.50;99.90;;;;;;5053687;28;20199;-77
2022/09/23 12:02:33;;;;;;;705.88;636.72;;;16.50;99.90;;;;;;5045076;28;20267;-76
2022/09/23 12:05:09;;;;;;;695.78;626.05;;;16.50;99.90;;;;;;5049469;28;20753;-76
2022/09/23 12:07:46;;;;;;;690.15;620.55;;;16.60;99.90;;;;;;5046239;28;20236;-77
2022/09/23 12:10:14;;;;;;;692.55;623.10;;;16.60;99.90;;;;;;5046313;28;20343;-77
2022/09/23 12:12:46;;;;;;;737.85;666.67;;;16.60;99.90;;;;;;5051720;28;20606;-77
2022/09/23 12:15:25;;;;;;;699.13;628.83;;;16.60;99.90;;;;;;5048150;28;20758;-77
2022/09/23 12:18:34;;;;;;;695.55;626.30;;;16.60;99.90;;;;;;5047206;28;20227;-77
2022/09/23 12:21:35;;;;;;;705.33;635.38;;;16.60;99.90;;;;;;5005908;28;20196;-76
2022/09/23 12:24:23;;;;;;;704.55;634.78;;;16.70;99.90;;;;;;4992480;28;20215;-77
2022/09/23 12:26:55;;;;;;;710.13;639.45;;;16.70;99.90;;;;;;5038634;28;20558;-76
2022/09/23 12:29:25;;;;;;;716.75;645.17;;;16.70;99.90;;;;;;5045994;28;20210;-77
2022/09/23 12:31:52;;;;;;;699.78;630.45;;;16.70;99.90;;;;;;5042570;28;20194;-77
2022/09/23 12:34:24;;;;;;;699.67;630.88;;;16.70;99.90;;;;;;5048562;28;20650;-77
2022/09/23 12:36:51;;;;;;;706.80;638.28;;;16.70;99.90;;;;;;5047086;28;20198;-76